createdAt,value
2023-01-18T00:00:18.787Z,13.50
2023-01-18T00:02:49.204Z,13.35
2023-01-18T00:05:17.175Z,15.20
2023-01-18T00:07:44.965Z,15.95
2023-01-18T00:10:12.717Z,14.70
2023-01-18T00:12:40.399Z,14.30
2023-01-18T00:15:09.674Z,15.60
2023-01-18T00:17:47.481Z,16.17
2023-01-18T00:20:17.157Z,16.70
2023-01-18T00:22:44.881Z,14.88
2023-01-18T00:25:12.762Z,17.13
2023-01-18T00:27:41.301Z,15.32
2023-01-18T00:30:10.926Z,17.23
2023-01-18T00:32:38.865Z,15.10
2023-01-18T00:35:08.165Z,15.98
2023-01-18T00:37:37.945Z,14.52
2023-01-18T00:40:07.387Z,16.15
2023-01-18T00:42:52.553Z,14.95
2023-01-18T00:45:20.274Z,16.55
2023-01-18T00:47:47.914Z,15.43
2023-01-18T00:50:15.656Z,17.35
2023-01-18T00:52:46.326Z,15.05
2023-01-18T00:55:15.071Z,16.77
2023-01-18T00:57:43.254Z,15.85
2023-01-18T01:00:15.291Z,16.45
2023-01-18T01:02:43.143Z,17.00
2023-01-18T01:05:36.112Z,17.33
2023-01-18T01:08:05.869Z,16.77
2023-01-18T01:10:33.701Z,15.70
2023-01-18T01:13:19.327Z,16.42
2023-01-18T01:16:04.556Z,16.00
2023-01-18T01:18:50.042Z,16.17
2023-01-18T01:21:35.317Z,15.40
2023-01-18T01:24:22.254Z,15.45
2023-01-18T01:26:50.135Z,17.08
2023-01-18T01:29:18.186Z,15.40
2023-01-18T01:31:46.738Z,16.30
2023-01-18T01:34:14.795Z,15.40
2023-01-18T01:36:42.467Z,15.48
2023-01-18T01:39:11.853Z,18.05
2023-01-18T01:41:39.744Z,14.25
2023-01-18T01:44:43.255Z,14.95
2023-01-18T01:47:15.400Z,15.95
2023-01-18T01:49:47.572Z,15.55
2023-01-18T01:52:17.898Z,15.75
2023-01-18T01:54:51.091Z,15.48
2023-01-18T01:57:21.820Z,15.07
2023-01-18T01:59:54.762Z,17.60
2023-01-18T02:02:22.891Z,16.58
2023-01-18T02:04:53.797Z,16.58
2023-01-18T02:07:21.748Z,16.05
2023-01-18T02:09:51.155Z,13.95
2023-01-18T02:12:19.145Z,16.13
2023-01-18T02:14:47.524Z,16.50
2023-01-18T02:17:32.544Z,15.13
2023-01-18T02:20:25.138Z,14.48
2023-01-18T02:23:20.867Z,15.25
2023-01-18T02:26:24.256Z,15.10
2023-01-18T02:28:59.602Z,17.10
2023-01-18T02:31:30.834Z,14.75
2023-01-18T02:34:04.835Z,18.23
2023-01-18T02:36:39.076Z,16.70
2023-01-18T02:39:13.651Z,15.60
2023-01-18T02:42:04.002Z,15.82
2023-01-18T02:44:57.073Z,16.98
2023-01-18T02:47:27.301Z,17.42
2023-01-18T02:49:57.031Z,14.65
2023-01-18T02:52:41.398Z,16.80
2023-01-18T02:55:15.118Z,15.43
2023-01-18T02:57:43.116Z,15.80
2023-01-18T03:00:18.991Z,16.73
2023-01-18T03:02:49.414Z,17.30
2023-01-18T03:05:18.941Z,16.08
2023-01-18T03:07:54.151Z,15.63
2023-01-18T03:10:27.004Z,16.00
2023-01-18T03:13:00.803Z,16.23
2023-01-18T03:15:39.730Z,15.38
2023-01-18T03:18:13.811Z,17.75
2023-01-18T03:20:47.739Z,17.98
2023-01-18T03:23:38.020Z,19.20
2023-01-18T03:26:07.610Z,16.58
2023-01-18T03:28:54.289Z,16.45
2023-01-18T03:31:50.777Z,19.25
2023-01-18T03:34:23.970Z,16.55
2023-01-18T03:36:53.992Z,15.18
2023-01-18T03:39:28.339Z,16.10
2023-01-18T03:42:01.533Z,14.85
2023-01-18T03:44:35.082Z,14.88
2023-01-18T03:47:05.765Z,14.45
2023-01-18T03:49:35.577Z,17.60
2023-01-18T03:52:10.812Z,16.20
2023-01-18T03:54:44.346Z,16.42
2023-01-18T03:57:19.237Z,15.82
2023-01-18T03:59:48.296Z,15.68
2023-01-18T04:02:18.349Z,15.45
2023-01-18T04:04:45.995Z,16.25
2023-01-18T04:07:13.609Z,15.40
2023-01-18T04:09:41.284Z,16.10
2023-01-18T04:12:09.118Z,14.90
2023-01-18T04:14:36.744Z,15.57
2023-01-18T04:17:04.382Z,16.00
2023-01-18T04:19:33.396Z,16.33
2023-01-18T04:22:01.012Z,16.27
2023-01-18T04:24:29.550Z,15.45
2023-01-18T04:26:57.147Z,16.98
2023-01-18T04:29:24.875Z,15.57
2023-01-18T04:31:52.540Z,17.35
2023-01-18T04:34:22.144Z,15.70
2023-01-18T04:36:51.740Z,15.25
2023-01-18T04:39:19.539Z,17.27
2023-01-18T04:41:47.211Z,15.80
2023-01-18T04:44:15.809Z,17.65
2023-01-18T04:46:43.815Z,16.33
2023-01-18T04:49:15.205Z,18.08
2023-01-18T04:51:44.062Z,15.40
2023-01-18T04:54:15.385Z,15.93
2023-01-18T04:56:43.034Z,15.93
2023-01-18T04:59:15.617Z,17.35
2023-01-18T05:01:43.386Z,17.10
2023-01-18T05:04:11.143Z,16.80
2023-01-18T05:06:38.953Z,16.50
2023-01-18T05:09:07.731Z,17.45
2023-01-18T05:11:36.686Z,16.10
2023-01-18T05:14:04.367Z,15.05
2023-01-18T05:16:32.071Z,17.15
2023-01-18T05:18:59.744Z,17.33
2023-01-18T05:21:28.588Z,16.27
2023-01-18T05:23:56.185Z,17.30
2023-01-18T05:26:24.987Z,16.83
2023-01-18T05:28:58.107Z,16.50
2023-01-18T05:31:26.416Z,17.15
2023-01-18T05:33:54.203Z,17.00
2023-01-18T05:36:21.883Z,16.90
2023-01-18T05:38:49.635Z,17.92
2023-01-18T05:41:17.304Z,15.93
2023-01-18T05:43:44.992Z,18.63
2023-01-18T05:46:13.995Z,18.40
2023-01-18T05:48:41.616Z,15.30
2023-01-18T05:51:11.209Z,17.10
2023-01-18T05:53:39.715Z,21.02
2023-01-18T05:56:09.269Z,19.50
2023-01-18T05:58:38.239Z,20.10
2023-01-18T06:01:07.553Z,18.23
2023-01-18T06:03:37.045Z,17.50
2023-01-18T06:06:05.112Z,18.63
2023-01-18T06:08:32.723Z,19.75
2023-01-18T06:11:00.857Z,17.98
2023-01-18T06:13:30.120Z,18.38
2023-01-18T06:15:58.686Z,18.15
2023-01-18T06:18:28.402Z,17.27
2023-01-18T06:21:01.092Z,18.40
2023-01-18T06:23:30.032Z,17.13
2023-01-18T06:25:57.722Z,17.58
2023-01-18T06:28:26.068Z,17.08
2023-01-18T06:30:55.048Z,17.98
2023-01-18T06:33:23.195Z,19.23
2023-01-18T06:35:50.883Z,18.10
2023-01-18T06:38:20.587Z,19.77
2023-01-18T06:40:48.264Z,18.83
2023-01-18T06:43:16.847Z,18.63
2023-01-18T06:45:44.706Z,20.70
2023-01-18T06:48:12.377Z,21.75
2023-01-18T06:50:40.081Z,18.90
2023-01-18T06:53:07.728Z,18.73
2023-01-18T06:55:36.766Z,17.95
2023-01-18T06:58:04.400Z,19.73
2023-01-18T07:00:31.982Z,18.85
2023-01-18T07:03:00.056Z,17.60
2023-01-18T07:05:27.953Z,18.85
2023-01-18T07:07:55.528Z,18.67
2023-01-18T07:10:23.133Z,21.05
2023-01-18T07:12:52.215Z,17.75
2023-01-18T07:15:22.598Z,18.70
2023-01-18T07:17:51.221Z,18.27
2023-01-18T07:20:19.822Z,21.75
2023-01-18T07:22:51.548Z,20.10
2023-01-18T07:25:20.620Z,21.60
2023-01-18T07:27:49.824Z,19.63
2023-01-18T07:30:19.714Z,22.30
2023-01-18T07:32:49.627Z,19.38
2023-01-18T07:35:18.516Z,20.40
2023-01-18T07:37:49.106Z,18.88
2023-01-18T07:40:17.302Z,22.25
2023-01-18T07:42:45.235Z,20.20
2023-01-18T07:45:13.865Z,20.92
2023-01-18T07:47:43.295Z,23.77
2023-01-18T07:50:12.961Z,22.15
2023-01-18T07:52:40.668Z,20.85
2023-01-18T07:55:08.991Z,21.08
2023-01-18T07:57:36.706Z,22.58
2023-01-18T08:00:07.076Z,24.33
2023-01-18T08:02:40.412Z,23.73
2023-01-18T08:05:10.801Z,20.13
2023-01-18T08:07:38.502Z,20.85
2023-01-18T08:10:06.713Z,22.45
2023-01-18T08:12:34.374Z,22.85
2023-01-18T08:15:02.007Z,19.60
2023-01-18T08:17:30.843Z,22.48
2023-01-18T08:19:58.565Z,22.58
2023-01-18T08:22:27.983Z,25.77
2023-01-18T08:24:55.572Z,24.88
2023-01-18T08:27:24.028Z,25.58
2023-01-18T08:29:52.328Z,24.42
2023-01-18T08:32:20.251Z,26.25
2023-01-18T08:34:47.875Z,26.00
2023-01-18T08:37:16.861Z,28.33
2023-01-18T08:39:45.926Z,24.95
2023-01-18T08:42:13.549Z,25.65
2023-01-18T08:44:41.195Z,27.60
2023-01-18T08:47:09.024Z,30.00
2023-01-18T08:49:36.694Z,30.92
2023-01-18T08:52:04.383Z,27.83
2023-01-18T08:54:31.997Z,28.63
2023-01-18T08:57:02.105Z,28.35
2023-01-18T08:59:29.770Z,28.95
2023-01-18T09:01:58.642Z,31.80
2023-01-18T09:04:27.831Z,30.40
2023-01-18T09:06:55.464Z,35.30
2023-01-18T09:09:23.399Z,35.10
2023-01-18T09:11:51.573Z,33.40
2023-01-18T09:14:20.583Z,29.88
2023-01-18T09:16:48.194Z,28.67
2023-01-18T09:19:16.005Z,30.13
2023-01-18T09:21:45.795Z,26.40
2023-01-18T09:24:14.031Z,25.42
2023-01-18T09:26:43.358Z,23.98
2023-01-18T09:29:12.998Z,22.65
2023-01-18T09:31:41.987Z,25.92
2023-01-18T09:34:18.932Z,25.33
2023-01-18T09:36:50.136Z,24.33
2023-01-18T09:39:18.069Z,22.20
2023-01-18T09:41:52.333Z,21.83
2023-01-18T09:44:25.968Z,18.88
2023-01-18T09:46:59.207Z,19.55
2023-01-18T09:49:35.670Z,18.95
2023-01-18T09:52:16.207Z,18.58
2023-01-18T09:54:53.572Z,16.35
2023-01-18T09:57:37.811Z,18.30
2023-01-18T10:00:18.395Z,16.92
2023-01-18T10:02:49.567Z,16.70
2023-01-18T10:05:21.888Z,16.50
2023-01-18T10:08:02.238Z,18.42
2023-01-18T10:10:35.653Z,16.13
2023-01-18T10:13:28.628Z,15.27
2023-01-18T10:15:56.500Z,16.17
2023-01-18T10:18:26.489Z,16.15
2023-01-18T10:20:58.699Z,17.27
2023-01-18T10:23:32.972Z,17.08
2023-01-18T10:26:04.056Z,18.00
2023-01-18T10:28:40.101Z,17.90
2023-01-18T10:31:20.672Z,16.17
2023-01-18T10:33:54.567Z,17.67
2023-01-18T10:36:27.010Z,16.05
2023-01-18T10:38:56.004Z,16.40
2023-01-18T10:41:27.687Z,16.33
2023-01-18T10:43:55.652Z,16.50
2023-01-18T10:46:23.535Z,16.77
2023-01-18T10:48:54.984Z,17.45
2023-01-18T10:51:34.564Z,18.63
2023-01-18T10:54:22.964Z,18.83
2023-01-18T10:56:50.744Z,18.33
2023-01-18T10:59:26.621Z,16.80
2023-01-18T11:01:57.438Z,17.50
2023-01-18T11:04:29.795Z,17.80
2023-01-18T11:06:59.749Z,14.95
2023-01-18T11:09:41.535Z,14.55
2023-01-18T11:12:38.112Z,16.05
2023-01-18T11:15:39.080Z,15.55
2023-01-18T11:18:11.908Z,16.48
2023-01-18T11:20:48.091Z,15.43
2023-01-18T11:23:20.980Z,15.05
2023-01-18T11:25:55.463Z,14.00
2023-01-18T11:28:26.903Z,16.63
2023-01-18T11:30:57.951Z,15.85
2023-01-18T11:33:27.315Z,16.55
2023-01-18T11:35:59.573Z,16.85
2023-01-18T11:38:30.432Z,13.88
2023-01-18T11:41:14.701Z,18.77
2023-01-18T11:43:52.641Z,15.27
2023-01-18T11:46:31.559Z,12.52
2023-01-18T11:49:05.639Z,15.48
2023-01-18T11:51:39.946Z,14.10
2023-01-18T11:54:18.681Z,15.43
2023-01-18T11:56:49.506Z,14.90
2023-01-18T11:59:24.536Z,13.70
2023-01-18T12:02:06.702Z,13.23
2023-01-18T12:04:48.460Z,14.05
2023-01-18T12:07:32.189Z,13.52
2023-01-18T12:10:02.260Z,13.77
2023-01-18T12:12:47.793Z,13.15
2023-01-18T12:15:38.756Z,12.53
2023-01-18T12:18:29.691Z,12.80
2023-01-18T12:21:04.764Z,13.57
2023-01-18T12:23:59.923Z,12.43
2023-01-18T12:26:39.375Z,12.57
2023-01-18T12:29:30.583Z,12.63
2023-01-18T12:32:11.682Z,11.13
2023-01-18T12:34:42.774Z,11.73
2023-01-18T12:37:35.604Z,12.63
2023-01-18T12:40:17.610Z,11.37
2023-01-18T12:42:56.984Z,10.77
2023-01-18T12:45:33.559Z,9.10
2023-01-18T12:48:10.607Z,10.20
2023-01-18T12:50:40.263Z,9.27
2023-01-18T12:53:14.467Z,9.10
2023-01-18T12:55:48.275Z,9.70
2023-01-18T12:58:21.175Z,10.07
2023-01-18T13:00:54.380Z,9.50
2023-01-18T13:03:30.562Z,8.07
2023-01-18T13:05:59.736Z,8.80
2023-01-18T13:08:40.726Z,8.33
2023-01-18T13:11:17.108Z,7.13
2023-01-18T13:13:45.970Z,9.30
2023-01-18T13:16:26.353Z,8.80
2023-01-18T13:18:59.781Z,7.80
2023-01-18T13:21:42.198Z,7.50
2023-01-18T13:24:21.602Z,8.00
2023-01-18T13:26:50.712Z,7.10
2023-01-18T13:29:25.792Z,6.88
2023-01-18T13:31:53.841Z,7.77
2023-01-18T13:34:31.922Z,8.68
2023-01-18T13:37:13.826Z,8.85
2023-01-18T13:39:47.343Z,9.00
2023-01-18T13:42:33.871Z,7.63
2023-01-18T13:45:17.025Z,8.75
2023-01-18T13:47:50.445Z,8.45
2023-01-18T13:50:41.104Z,10.05
2023-01-18T13:53:31.693Z,9.50
2023-01-18T13:56:28.242Z,8.98
2023-01-18T13:59:20.082Z,8.70
2023-01-18T14:01:49.849Z,9.75
2023-01-18T14:04:31.612Z,9.95
2023-01-18T14:07:01.885Z,9.70
2023-01-18T14:09:36.254Z,9.50
2023-01-18T14:12:05.042Z,10.55
2023-01-18T14:14:35.847Z,11.07
2023-01-18T14:17:15.044Z,9.82
2023-01-18T14:20:05.366Z,10.02
2023-01-18T14:22:47.311Z,10.60
2023-01-18T14:25:39.598Z,10.10
2023-01-18T14:28:11.366Z,10.18
2023-01-18T14:30:43.106Z,10.85
2023-01-18T14:33:16.544Z,11.35
2023-01-18T14:35:52.373Z,10.75
2023-01-18T14:38:20.600Z,9.85
2023-01-18T14:40:50.450Z,11.15
2023-01-18T14:43:25.872Z,10.70
2023-01-18T14:46:01.870Z,11.18
2023-01-18T14:48:34.527Z,11.70
2023-01-18T14:51:04.109Z,12.25
2023-01-18T14:53:35.403Z,10.95
2023-01-18T14:56:10.568Z,9.85
2023-01-18T14:58:40.827Z,10.43
2023-01-18T15:01:26.472Z,11.10
2023-01-18T15:03:55.800Z,10.38
2023-01-18T15:06:33.959Z,10.93
2023-01-18T15:09:03.697Z,9.60
2023-01-18T15:11:31.760Z,9.73
2023-01-18T15:13:59.799Z,8.18
2023-01-18T15:16:31.760Z,8.57
2023-01-18T15:19:01.765Z,8.13
2023-01-18T15:21:33.535Z,7.85
2023-01-18T15:24:06.299Z,8.80
2023-01-18T15:26:41.033Z,6.65
2023-01-18T15:29:15.031Z,8.07
2023-01-18T15:31:53.054Z,8.90
2023-01-18T15:34:27.558Z,8.25
2023-01-18T15:36:56.946Z,7.00
2023-01-18T15:39:25.843Z,7.88
2023-01-18T15:41:56.755Z,8.60
2023-01-18T15:44:49.867Z,9.00
2023-01-18T15:47:24.436Z,7.78
2023-01-18T15:49:53.961Z,8.15
2023-01-18T15:52:40.027Z,8.18
2023-01-18T15:55:19.521Z,8.77
2023-01-18T15:57:57.324Z,8.25
2023-01-18T16:00:28.417Z,9.75
2023-01-18T16:02:57.899Z,7.93
2023-01-18T16:05:26.795Z,7.43
2023-01-18T16:08:17.862Z,8.32
2023-01-18T16:10:51.308Z,6.90
2023-01-18T16:13:23.669Z,8.70
2023-01-18T16:16:09.335Z,7.82
2023-01-18T16:18:38.774Z,9.45
2023-01-18T16:21:13.744Z,7.90
2023-01-18T16:23:45.677Z,8.13
2023-01-18T16:26:15.200Z,9.25
2023-01-18T16:28:42.987Z,7.85
2023-01-18T16:31:10.829Z,8.10
2023-01-18T16:33:40.572Z,7.82
2023-01-18T16:36:17.948Z,8.43
2023-01-18T16:38:45.697Z,7.85
2023-01-18T16:41:14.851Z,9.00
2023-01-18T16:43:44.829Z,7.60
2023-01-18T16:46:12.854Z,8.80
2023-01-18T16:48:41.970Z,7.50
2023-01-18T16:51:18.473Z,8.77
2023-01-18T16:53:48.044Z,8.35
2023-01-18T16:56:16.481Z,8.98
2023-01-18T16:58:44.152Z,8.90
2023-01-18T17:01:14.663Z,8.13
2023-01-18T17:03:44.841Z,8.20
2023-01-18T17:06:17.678Z,9.70
2023-01-18T17:08:46.022Z,7.43
2023-01-18T17:11:14.244Z,7.07
2023-01-18T17:13:42.575Z,8.60
2023-01-18T17:16:16.784Z,7.82
2023-01-18T17:18:45.938Z,7.72
2023-01-18T17:21:14.003Z,6.50
2023-01-18T17:23:41.633Z,8.35
2023-01-18T17:26:14.054Z,7.97
2023-01-18T17:28:41.726Z,7.50
2023-01-18T17:31:09.585Z,7.28
2023-01-18T17:33:40.358Z,8.25
2023-01-18T17:36:09.978Z,7.65
2023-01-18T17:38:37.694Z,7.63
2023-01-18T17:41:08.237Z,7.82
2023-01-18T17:43:37.297Z,7.38
2023-01-18T17:46:06.742Z,7.55
2023-01-18T17:48:34.576Z,8.32
2023-01-18T17:51:02.242Z,8.13
2023-01-18T17:53:31.248Z,6.95
2023-01-18T17:55:58.879Z,7.25
2023-01-18T17:58:26.988Z,7.68
2023-01-18T18:00:55.231Z,8.15
2023-01-18T18:03:22.996Z,8.50
2023-01-18T18:05:50.800Z,8.73
2023-01-18T18:08:18.892Z,8.32
2023-01-18T18:10:48.306Z,8.57
2023-01-18T18:13:15.976Z,9.13
2023-01-18T18:15:46.488Z,8.95
2023-01-18T18:18:29.783Z,8.88
2023-01-18T18:20:59.111Z,10.50
2023-01-18T18:23:27.385Z,9.85
2023-01-18T18:25:56.891Z,9.98
2023-01-18T18:28:27.328Z,10.18
2023-01-18T18:30:56.579Z,10.23
2023-01-18T18:33:25.130Z,9.73
2023-01-18T18:35:53.361Z,12.02
2023-01-18T18:38:22.841Z,13.52
2023-01-18T18:40:51.094Z,11.35
2023-01-18T18:43:20.602Z,11.20
2023-01-18T18:45:48.512Z,10.25
2023-01-18T18:48:16.238Z,10.55
2023-01-18T18:50:43.917Z,11.27
2023-01-18T18:53:11.598Z,12.52
2023-01-18T18:55:39.253Z,10.85
2023-01-18T18:58:06.894Z,11.10
2023-01-18T19:00:36.116Z,11.05
2023-01-18T19:03:05.908Z,10.10
2023-01-18T19:05:35.227Z,11.40
2023-01-18T19:08:04.066Z,10.60
2023-01-18T19:10:31.904Z,9.65
2023-01-18T19:13:00.202Z,10.52
2023-01-18T19:15:28.166Z,9.35
2023-01-18T19:17:57.950Z,8.80
2023-01-18T19:20:25.719Z,9.18
2023-01-18T19:22:53.427Z,10.48
2023-01-18T19:25:21.431Z,9.30
2023-01-18T19:27:49.095Z,9.73
2023-01-18T19:30:19.802Z,9.68
2023-01-18T19:32:48.979Z,9.38
2023-01-18T19:35:18.917Z,8.43
2023-01-18T19:37:47.526Z,8.30
2023-01-18T19:40:16.259Z,8.55
2023-01-18T19:42:46.978Z,8.18
2023-01-18T19:45:26.765Z,7.68
2023-01-18T19:47:55.706Z,8.00
2023-01-18T19:50:25.154Z,8.48
2023-01-18T19:52:53.133Z,8.02
2023-01-18T19:55:21.464Z,7.30
2023-01-18T19:57:49.383Z,9.02
2023-01-18T20:00:17.792Z,7.78
2023-01-18T20:02:45.755Z,7.70
2023-01-18T20:05:13.517Z,8.70
2023-01-18T20:07:42.605Z,7.97
2023-01-18T20:10:11.596Z,8.45
2023-01-18T20:12:40.584Z,7.00
2023-01-18T20:15:08.920Z,7.50
2023-01-18T20:17:36.692Z,7.00
2023-01-18T20:20:04.961Z,7.80
2023-01-18T20:22:32.834Z,6.75
2023-01-18T20:25:01.903Z,7.43
2023-01-18T20:27:29.668Z,7.88
2023-01-18T20:29:58.211Z,8.05
2023-01-18T20:32:25.959Z,8.40
2023-01-18T20:34:53.675Z,6.78
2023-01-18T20:37:21.394Z,7.72
2023-01-18T20:39:50.142Z,7.65
2023-01-18T20:42:19.580Z,7.30
2023-01-18T20:44:50.318Z,7.25
2023-01-18T20:47:18.086Z,7.88
2023-01-18T20:49:46.938Z,7.28
2023-01-18T20:52:14.904Z,6.43
2023-01-18T20:54:42.561Z,7.40
2023-01-18T20:57:10.451Z,8.70
2023-01-18T20:59:39.582Z,7.47
2023-01-18T21:02:07.799Z,7.97
2023-01-18T21:04:35.683Z,8.13
2023-01-18T21:07:03.579Z,8.15
2023-01-18T21:09:31.416Z,8.57
2023-01-18T21:11:59.509Z,7.13
2023-01-18T21:14:28.167Z,7.70
2023-01-18T21:16:57.311Z,9.43
2023-01-18T21:19:25.326Z,7.93
2023-01-18T21:21:53.037Z,7.60
2023-01-18T21:24:20.994Z,8.48
2023-01-18T21:26:48.660Z,8.60
2023-01-18T21:29:16.344Z,8.30
2023-01-18T21:31:44.023Z,8.45
2023-01-18T21:34:13.081Z,7.40
2023-01-18T21:36:40.855Z,7.20
2023-01-18T21:39:11.332Z,10.50
2023-01-18T21:41:56.611Z,8.77
2023-01-18T21:44:41.710Z,8.70
2023-01-18T21:47:09.342Z,9.65
2023-01-18T21:50:16.530Z,8.52
2023-01-18T21:53:00.579Z,9.82
2023-01-18T21:55:28.277Z,10.05
2023-01-18T21:58:13.497Z,7.35
2023-01-18T22:00:43.122Z,8.63
2023-01-18T22:03:12.973Z,8.23
2023-01-18T22:05:41.494Z,10.15
2023-01-18T22:08:10.147Z,10.45
2023-01-18T22:10:37.928Z,10.38
2023-01-18T22:13:05.682Z,10.10
2023-01-18T22:15:33.375Z,9.65
2023-01-18T22:18:01.747Z,10.90
2023-01-18T22:20:30.976Z,9.60
2023-01-18T22:23:00.766Z,9.25
2023-01-18T22:25:28.428Z,9.60
2023-01-18T22:27:56.111Z,10.55
2023-01-18T22:30:23.835Z,11.02
2023-01-18T22:32:51.556Z,9.65
2023-01-18T22:35:20.263Z,10.95
2023-01-18T22:37:47.958Z,8.60
2023-01-18T22:40:17.448Z,10.48
2023-01-18T22:42:45.100Z,11.25
2023-01-18T22:45:12.880Z,9.32
2023-01-18T22:47:40.509Z,11.55
2023-01-18T22:50:08.892Z,9.48
2023-01-18T22:52:36.600Z,11.27
2023-01-18T22:55:04.442Z,11.30
2023-01-18T22:57:33.449Z,9.45
2023-01-18T23:00:01.175Z,9.80
2023-01-18T23:02:28.845Z,10.95
2023-01-18T23:04:56.475Z,10.15
2023-01-18T23:07:24.171Z,11.85
2023-01-18T23:09:52.042Z,11.93
2023-01-18T23:12:19.706Z,9.45
2023-01-18T23:15:06.074Z,10.32
2023-01-18T23:17:39.609Z,10.45
2023-01-18T23:20:10.138Z,11.20
2023-01-18T23:22:37.800Z,10.55
2023-01-18T23:25:06.045Z,11.80
2023-01-18T23:27:33.777Z,11.93
2023-01-18T23:30:03.094Z,11.57
2023-01-18T23:32:31.527Z,12.98
2023-01-18T23:34:59.598Z,11.23
2023-01-18T23:37:27.913Z,11.80
2023-01-18T23:40:13.408Z,11.32
2023-01-18T23:42:58.625Z,11.40
2023-01-18T23:45:45.465Z,12.02
2023-01-18T23:48:32.489Z,11.63
2023-01-18T23:51:17.976Z,12.00
2023-01-18T23:54:03.284Z,10.93
2023-01-18T23:56:31.072Z,11.75
2023-01-18T23:58:59.397Z,11.27
